Time;durP1;ratioP1;P1;durP2;ratioP2;P2;SDS_P1;SDS_P2;PMS_P1;PMS_P2;Temp;Humidity;BMP_temperature;BMP_pressure;BME280_temperature;BME280_humidity;BME280_pressure;Samples;Min_cycle;Max_cycle;Signal;HPM_P1;HPM_P2
2021/12/06 00:00:26;;;;;;;40.30;27.13;;;;;;;;;;5095658;28;20043;-76
2021/12/06 00:02:54;;;;;;;40.33;26.10;;;;;;;;;;5095575;28;20043;-76
2021/12/06 00:05:20;;;;;;;42.97;28.05;;;;;;;;;;5078790;28;20047;-76
2021/12/06 00:07:46;;;;;;;41.15;28.02;;;;;;;;;;5095772;28;20445;-78
2021/12/06 00:10:13;;;;;;;42.70;28.85;;;;;;;;;;5095865;28;20168;-76
2021/12/06 00:12:39;;;;;;;40.88;28.23;;;;;;;;;;5113517;28;20046;-76
2021/12/06 00:15:06;;;;;;;45.97;29.63;;;;;;;;;;5113714;28;20568;-78
2021/12/06 00:17:32;;;;;;;42.67;27.98;;;;;;;;;;5113684;28;20130;-75
2021/12/06 00:19:58;;;;;;;41.22;27.95;;;;;;;;;;5113407;28;20039;-77
2021/12/06 00:22:24;;;;;;;40.70;25.98;;;;;;;;;;5113278;28;20039;-75
2021/12/06 00:24:52;;;;;;;40.75;27.67;;;;;;;;;;5113298;28;20092;-76
2021/12/06 00:27:18;;;;;;;40.80;27.45;;;;;;;;;;5094992;28;20440;-75
2021/12/06 00:29:54;;;;;;;44.13;28.92;;;;;;;;;;5113472;28;20043;-76
2021/12/06 00:32:20;;;;;;;43.10;28.58;;;;;;;;;;5113577;28;20054;-77
2021/12/06 00:34:47;;;;;;;45.45;30.15;;;;;;;;;;5113278;28;20122;-76
2021/12/06 00:37:30;;;;;;;45.15;30.13;;;;;;;;;;5113146;28;20087;-78
2021/12/06 00:39:57;;;;;;;44.85;29.33;;;;;;;;;;5112916;28;20051;-77
2021/12/06 00:42:25;;;;;;;43.65;28.35;;;;;;;;;;5113333;28;20050;-78
2021/12/06 00:44:51;;;;;;;45.25;30.08;;;;;;;;;;5113395;28;20040;-75
2021/12/06 00:47:18;;;;;;;43.75;29.77;;;;;;;;;;5095322;28;20140;-77
2021/12/06 00:49:45;;;;;;;42.90;28.85;;;;;;;;;;5113111;28;20039;-79
2021/12/06 00:52:12;;;;;;;46.05;29.08;;;;;;;;;;5094792;28;20043;-76
2021/12/06 00:54:41;;;;;;;46.05;29.77;;;;;;;;;;5094705;28;20035;-76
2021/12/06 00:57:08;;;;;;;46.30;29.70;;;;;;;;;;5112681;28;20055;-75
2021/12/06 00:59:35;;;;;;;44.30;28.52;;;;;;;;;;5078256;28;20079;-77
2021/12/06 01:02:01;;;;;;;45.67;27.67;;;;;;;;;;5112961;28;20039;-77
2021/12/06 01:04:29;;;;;;;41.95;25.75;;;;;;;;;;5080900;28;20089;-77
2021/12/06 01:06:56;;;;;;;46.28;27.48;;;;;;;;;;5116856;28;20090;-75
2021/12/06 01:09:22;;;;;;;46.25;27.23;;;;;;;;;;5117265;28;20058;-77
2021/12/06 01:11:48;;;;;;;48.25;28.42;;;;;;;;;;5098839;28;20054;-77
2021/12/06 01:14:15;;;;;;;45.10;26.27;;;;;;;;;;5116981;28;20209;-76
2021/12/06 01:16:41;;;;;;;50.05;28.48;;;;;;;;;;5116872;28;20050;-76
2021/12/06 01:19:07;;;;;;;47.13;27.95;;;;;;;;;;5117153;28;20135;-76
2021/12/06 01:24:11;;;;;;;47.03;27.90;;;;;;;;;;5098834;28;20126;-75
2021/12/06 01:27:01;;;;;;;49.75;30.25;;;;;;;;;;5116852;28;20367;-76
2021/12/06 01:32:11;;;;;;;48.42;28.20;;;;;;;;;;5098574;28;20055;-76
2021/12/06 01:40:07;;;;;;;45.72;28.05;;;;;;;;;;5116466;28;20086;-76
2021/12/06 01:42:34;;;;;;;48.45;28.58;;;;;;;;;;5098403;28;20392;-76
2021/12/06 01:45:00;;;;;;;50.00;29.70;;;;;;;;;;5081391;28;20035;-75
2021/12/06 01:47:29;;;;;;;58.90;32.67;;;;;;;;;;5098552;28;20044;-78
2021/12/06 01:49:56;;;;;;;59.55;32.33;;;;;;;;;;5098109;28;20048;-77
2021/12/06 01:52:25;;;;;;;57.80;33.28;;;;;;;;;;5116299;28;20116;-79
2021/12/06 01:54:51;;;;;;;56.97;32.45;;;;;;;;;;5116043;28;20298;-77
2021/12/06 01:57:18;;;;;;;56.70;31.65;;;;;;;;;;5097677;28;20494;-75
2021/12/06 01:59:44;;;;;;;56.47;31.33;;;;;;;;;;5097884;28;20047;-76
2021/12/06 02:02:11;;;;;;;60.25;33.15;;;;;;;;;;5116081;28;20036;-75
2021/12/06 02:04:38;;;;;;;59.35;32.67;;;;;;;;;;5115878;28;20389;-76
2021/12/06 02:07:06;;;;;;;60.28;33.60;;;;;;;;;;5081248;28;20059;-78
2021/12/06 02:09:32;;;;;;;59.78;32.58;;;;;;;;;;5115658;28;20047;-76
2021/12/06 02:12:00;;;;;;;55.00;32.50;;;;;;;;;;5097913;28;20036;-76
2021/12/06 02:17:13;;;;;;;63.80;34.30;;;;;;;;;;5115742;28;20135;-75
2021/12/06 02:19:44;;;;;;;69.93;36.50;;;;;;;;;;5115550;28;20120;-76
2021/12/06 02:22:12;;;;;;;66.43;37.35;;;;;;;;;;5115586;28;20704;-76
2021/12/06 02:24:38;;;;;;;65.97;35.40;;;;;;;;;;5115726;28;20039;-76
2021/12/06 02:27:05;;;;;;;67.75;36.63;;;;;;;;;;5115943;28;20046;-75
2021/12/06 02:29:32;;;;;;;66.20;35.35;;;;;;;;;;5115335;28;20559;-77
2021/12/06 02:31:58;;;;;;;69.20;35.63;;;;;;;;;;5097230;28;20085;-76
2021/12/06 02:34:24;;;;;;;68.63;35.53;;;;;;;;;;5097047;28;20354;-78
2021/12/06 02:36:50;;;;;;;70.65;37.80;;;;;;;;;;5115434;28;20035;-77
2021/12/06 02:39:22;;;;;;;74.10;37.53;;;;;;;;;;5097253;28;20040;-75
2021/12/06 02:41:49;;;;;;;65.38;35.53;;;;;;;;;;5115074;28;20559;-76
2021/12/06 02:44:18;;;;;;;67.03;36.00;;;;;;;;;;5115429;28;20134;-77
2021/12/06 02:46:44;;;;;;;64.57;34.70;;;;;;;;;;5097205;28;20108;-75
2021/12/06 02:49:10;;;;;;;72.93;35.75;;;;;;;;;;5096936;28;20043;-76
2021/12/06 02:51:37;;;;;;;70.95;35.58;;;;;;;;;;5097053;28;20043;-74
2021/12/06 02:54:03;;;;;;;68.38;35.83;;;;;;;;;;5096964;28;20048;-74
2021/12/06 02:56:39;;;;;;;71.38;37.55;;;;;;;;;;5117379;28;20046;-74
2021/12/06 02:59:07;;;;;;;73.50;37.40;;;;;;;;;;5120603;28;20083;-78
2021/12/06 03:01:41;;;;;;;70.03;35.63;;;;;;;;;;5102678;28;20067;-76
2021/12/06 03:04:07;;;;;;;70.75;36.15;;;;;;;;;;5120950;28;20051;-75
2021/12/06 03:06:34;;;;;;;74.35;37.58;;;;;;;;;;5117206;28;20495;-77
2021/12/06 03:09:06;;;;;;;73.15;36.40;;;;;;;;;;5114878;28;20043;-75
2021/12/06 03:11:35;;;;;;;73.63;37.85;;;;;;;;;;5114635;28;20048;-78
2021/12/06 03:14:02;;;;;;;79.40;38.67;;;;;;;;;;5114856;28;20093;-78
2021/12/06 03:16:29;;;;;;;77.22;37.80;;;;;;;;;;5114793;28;20046;-79
2021/12/06 03:18:55;;;;;;;75.25;37.95;;;;;;;;;;5114568;28;20050;-75
2021/12/06 03:21:22;;;;;;;67.82;36.47;;;;;;;;;;5079678;28;20051;-77
2021/12/06 03:23:48;;;;;;;70.72;36.28;;;;;;;;;;5114561;28;20075;-77
2021/12/06 03:26:15;;;;;;;66.72;35.80;;;;;;;;;;5078668;28;20409;-75
2021/12/06 03:28:42;;;;;;;71.57;37.28;;;;;;;;;;5096264;28;20071;-76
2021/12/06 03:31:09;;;;;;;70.40;35.60;;;;;;;;;;5114450;28;20047;-76
2021/12/06 03:33:36;;;;;;;66.80;35.35;;;;;;;;;;5096303;28;20043;-77
2021/12/06 03:36:06;;;;;;;67.28;33.47;;;;;;;;;;5096025;28;20043;-75
2021/12/06 03:38:33;;;;;;;63.30;32.93;;;;;;;;;;5095993;28;20048;-76
2021/12/06 03:40:59;;;;;;;67.75;34.78;;;;;;;;;;5114086;28;20039;-76
2021/12/06 03:43:25;;;;;;;67.15;34.25;;;;;;;;;;5114118;28;20076;-76
2021/12/06 03:45:52;;;;;;;69.72;35.38;;;;;;;;;;5114046;28;20109;-76
2021/12/06 03:48:18;;;;;;;73.38;35.20;;;;;;;;;;5095805;28;20043;-77
2021/12/06 03:50:44;;;;;;;72.18;37.15;;;;;;;;;;5114114;28;20046;-76
2021/12/06 03:53:10;;;;;;;81.70;38.22;;;;;;;;;;5095892;28;20100;-76
2021/12/06 03:55:37;;;;;;;85.30;39.47;;;;;;;;;;5113824;28;20043;-75
2021/12/06 03:58:03;;;;;;;78.47;36.95;;;;;;;;;;5113594;28;20051;-77
2021/12/06 04:00:29;;;;;;;83.78;39.42;;;;;;;;;;5095687;28;20405;-76
2021/12/06 04:02:55;;;;;;;78.63;37.03;;;;;;;;;;5095608;28;20043;-77
2021/12/06 04:05:22;;;;;;;79.32;37.15;;;;;;;;;;5113721;28;20039;-76
2021/12/06 04:07:48;;;;;;;89.38;37.95;;;;;;;;;;5113679;28;20061;-77
2021/12/06 04:10:14;;;;;;;78.50;37.70;;;;;;;;;;5113426;28;20054;-75
2021/12/06 04:12:40;;;;;;;87.72;38.17;;;;;;;;;;5095446;28;20369;-76
2021/12/06 04:15:08;;;;;;;76.60;36.60;;;;;;;;;;5113661;28;20160;-76
2021/12/06 04:17:38;;;;;;;83.60;38.35;;;;;;;;;;5113704;28;20079;-76
2021/12/06 04:20:19;;;;;;;79.22;36.33;;;;;;;;;;5095349;28;20050;-76
2021/12/06 04:22:45;;;;;;;80.68;36.50;;;;;;;;;;5113401;28;20043;-76
2021/12/06 04:25:17;;;;;;;75.63;36.05;;;;;;;;;;5095669;28;20081;-78
2021/12/06 04:27:44;;;;;;;79.82;36.55;;;;;;;;;;5113556;28;20393;-75
2021/12/06 04:30:11;;;;;;;78.00;35.72;;;;;;;;;;5078260;28;20472;-79
2021/12/06 04:32:38;;;;;;;87.90;36.80;;;;;;;;;;5095057;28;20075;-75
2021/12/06 04:35:05;;;;;;;85.82;37.40;;;;;;;;;;5113173;28;20164;-76
2021/12/06 04:37:31;;;;;;;83.38;37.40;;;;;;;;;;5112752;28;20082;-76
2021/12/06 04:39:57;;;;;;;83.97;37.72;;;;;;;;;;5095468;28;20040;-74
2021/12/06 04:42:23;;;;;;;89.60;38.22;;;;;;;;;;5095422;28;20039;-75
2021/12/06 04:44:49;;;;;;;86.85;38.97;;;;;;;;;;5078074;28;20046;-77
2021/12/06 04:47:16;;;;;;;75.70;35.50;;;;;;;;;;5113038;28;20039;-77
2021/12/06 04:49:42;;;;;;;78.57;35.25;;;;;;;;;;5112943;28;20118;-76
2021/12/06 04:52:11;;;;;;;81.93;35.60;;;;;;;;;;5078420;28;20035;-75
2021/12/06 04:54:39;;;;;;;81.75;34.65;;;;;;;;;;5113182;28;20050;-75
2021/12/06 04:57:05;;;;;;;77.40;35.05;;;;;;;;;;5112749;28;20059;-75
2021/12/06 04:59:42;;;;;;;74.20;34.58;;;;;;;;;;5112857;28;20160;-75
2021/12/06 05:02:11;;;;;;;79.50;36.25;;;;;;;;;;5112853;28;20046;-76
2021/12/06 05:04:38;;;;;;;83.28;36.88;;;;;;;;;;5113169;28;20039;-74
2021/12/06 05:07:08;;;;;;;83.07;35.75;;;;;;;;;;5094857;28;20538;-74
2021/12/06 05:09:36;;;;;;;88.78;38.08;;;;;;;;;;5095097;28;20122;-78
2021/12/06 05:12:03;;;;;;;90.72;38.08;;;;;;;;;;5094700;28;20050;-76
2021/12/06 05:14:30;;;;;;;94.68;39.22;;;;;;;;;;5078224;28;20483;-78
2021/12/06 05:16:56;;;;;;;88.68;37.03;;;;;;;;;;5112615;28;20040;-77
2021/12/06 05:19:23;;;;;;;93.43;38.28;;;;;;;;;;5094728;28;20051;-77
2021/12/06 05:21:49;;;;;;;93.07;39.15;;;;;;;;;;5078126;28;20044;-76
2021/12/06 05:24:16;;;;;;;92.47;38.58;;;;;;;;;;5112867;28;20444;-75
2021/12/06 05:26:42;;;;;;;91.97;36.85;;;;;;;;;;5094584;28;20184;-77
2021/12/06 05:29:10;;;;;;;94.38;38.10;;;;;;;;;;5112715;28;20130;-76
2021/12/06 05:31:39;;;;;;;91.55;39.05;;;;;;;;;;5094383;28;20550;-77
2021/12/06 05:34:11;;;;;;;84.40;35.58;;;;;;;;;;5094274;28;20079;-77
2021/12/06 05:36:38;;;;;;;83.15;35.80;;;;;;;;;;5112696;28;20040;-77
2021/12/06 05:39:06;;;;;;;79.63;34.80;;;;;;;;;;5094553;28;20410;-76
2021/12/06 05:41:33;;;;;;;81.22;33.95;;;;;;;;;;5094705;28;20058;-78
2021/12/06 05:43:59;;;;;;;86.10;37.83;;;;;;;;;;5112393;28;20097;-77
2021/12/06 05:46:25;;;;;;;92.68;37.65;;;;;;;;;;5112619;28;20046;-76
2021/12/06 05:48:51;;;;;;;89.05;36.22;;;;;;;;;;5112777;28;20046;-75
2021/12/06 05:51:17;;;;;;;87.70;35.85;;;;;;;;;;5116421;28;20050;-78
2021/12/06 05:53:43;;;;;;;92.07;37.00;;;;;;;;;;5116486;28;20043;-75
2021/12/06 05:56:10;;;;;;;90.00;36.88;;;;;;;;;;5116151;28;20385;-78
2021/12/06 05:58:37;;;;;;;88.82;36.13;;;;;;;;;;5116292;28;20056;-77
2021/12/06 06:01:03;;;;;;;88.05;36.95;;;;;;;;;;5116265;28;20048;-77
2021/12/06 06:03:30;;;;;;;86.70;35.70;;;;;;;;;;5116265;28;20071;-77
2021/12/06 06:05:56;;;;;;;81.65;34.30;;;;;;;;;;5116069;28;20079;-76
2021/12/06 06:08:22;;;;;;;84.82;35.53;;;;;;;;;;5116015;28;20079;-77
2021/12/06 06:10:51;;;;;;;93.18;36.75;;;;;;;;;;5115944;28;20067;-76
2021/12/06 06:13:17;;;;;;;89.13;36.15;;;;;;;;;;5115676;28;20463;-77
2021/12/06 06:15:43;;;;;;;93.68;36.47;;;;;;;;;;5115882;28;20539;-78
2021/12/06 06:18:09;;;;;;;93.65;37.15;;;;;;;;;;5115726;28;20424;-77
2021/12/06 06:20:44;;;;;;;96.75;37.28;;;;;;;;;;5115658;28;20039;-77
2021/12/06 06:23:10;;;;;;;107.60;38.70;;;;;;;;;;5116132;28;20039;-77
2021/12/06 06:25:38;;;;;;;102.13;37.95;;;;;;;;;;5115524;28;20044;-79
2021/12/06 06:28:04;;;;;;;101.13;37.47;;;;;;;;;;5097585;28;20047;-78
2021/12/06 06:30:31;;;;;;;103.13;38.97;;;;;;;;;;5115694;28;20051;-75
2021/12/06 06:32:57;;;;;;;92.53;37.03;;;;;;;;;;5097505;28;20039;-75
2021/12/06 06:35:24;;;;;;;94.75;36.10;;;;;;;;;;5097199;28;20047;-78
2021/12/06 06:37:50;;;;;;;104.55;38.47;;;;;;;;;;5115684;28;20479;-77
2021/12/06 06:40:17;;;;;;;110.38;39.00;;;;;;;;;;5115274;28;20046;-76
2021/12/06 06:42:43;;;;;;;90.40;36.30;;;;;;;;;;5115454;28;20044;-79
2021/12/06 06:45:11;;;;;;;80.70;34.95;;;;;;;;;;5115369;28;20053;-76
2021/12/06 06:47:37;;;;;;;80.75;32.90;;;;;;;;;;5096916;28;20035;-76
2021/12/06 06:50:03;;;;;;;82.45;34.80;;;;;;;;;;5097280;28;20036;-75
2021/12/06 06:52:30;;;;;;;92.43;35.75;;;;;;;;;;5096964;28;20048;-77
2021/12/06 06:54:56;;;;;;;84.22;34.60;;;;;;;;;;5115044;28;20387;-77
2021/12/06 06:57:22;;;;;;;78.07;31.90;;;;;;;;;;5093296;28;20052;-77
2021/12/06 06:59:49;;;;;;;75.80;30.13;;;;;;;;;;5094543;28;20039;-76
2021/12/06 07:02:15;;;;;;;88.85;33.30;;;;;;;;;;5094597;28;20097;-78
2021/12/06 07:04:41;;;;;;;80.45;32.17;;;;;;;;;;5094795;28;20090;-76
2021/12/06 07:07:07;;;;;;;80.57;32.28;;;;;;;;;;5093373;28;20059;-76
2021/12/06 07:09:33;;;;;;;71.35;31.05;;;;;;;;;;5093171;28;20040;-77
2021/12/06 07:12:00;;;;;;;71.97;30.75;;;;;;;;;;5093269;28;20123;-78
2021/12/06 07:14:26;;;;;;;68.65;31.38;;;;;;;;;;5094280;28;20055;-76
2021/12/06 07:16:53;;;;;;;75.43;31.98;;;;;;;;;;5094083;28;20044;-77
2021/12/06 07:19:19;;;;;;;77.07;32.70;;;;;;;;;;5093086;28;20040;-78
2021/12/06 07:21:45;;;;;;;78.63;32.92;;;;;;;;;;5094214;28;20040;-77
2021/12/06 07:24:12;;;;;;;72.45;32.70;;;;;;;;;;5094164;28;20400;-76
2021/12/06 07:26:38;;;;;;;77.57;32.45;;;;;;;;;;5094274;28;20051;-76
2021/12/06 07:29:04;;;;;;;78.97;33.13;;;;;;;;;;5094227;28;20046;-76
2021/12/06 07:31:31;;;;;;;76.20;32.10;;;;;;;;;;5094455;28;20132;-77
2021/12/06 07:33:57;;;;;;;69.65;32.13;;;;;;;;;;5093976;28;20039;-75
2021/12/06 07:36:25;;;;;;;67.30;31.05;;;;;;;;;;5092335;28;20044;-77
2021/12/06 07:38:51;;;;;;;69.30;31.45;;;;;;;;;;5075519;28;20054;-76
2021/12/06 07:41:20;;;;;;;61.45;29.83;;;;;;;;;;5093987;28;20044;-77
2021/12/06 07:43:47;;;;;;;60.42;28.33;;;;;;;;;;5092417;28;20516;-77
2021/12/06 07:46:15;;;;;;;63.45;30.80;;;;;;;;;;5094593;28;20039;-74
2021/12/06 07:48:41;;;;;;;65.22;30.70;;;;;;;;;;5093267;28;20052;-74
2021/12/06 07:51:07;;;;;;;67.65;30.63;;;;;;;;;;5092993;28;20131;-77
2021/12/06 07:53:35;;;;;;;70.93;31.77;;;;;;;;;;5075373;28;20040;-75
2021/12/06 07:56:02;;;;;;;56.55;27.75;;;;;;;;;;5093450;28;20043;-77
2021/12/06 07:58:29;;;;;;;56.17;28.58;;;;;;;;;;5091959;28;20416;-76
2021/12/06 08:00:55;;;;;;;58.85;28.25;;;;;;;;;;5093261;28;20515;-78
2021/12/06 08:03:23;;;;;;;60.00;29.65;;;;;;;;;;5075409;28;20126;-77
2021/12/06 08:05:52;;;;;;;61.53;28.88;;;;;;;;;;5093190;28;20083;-76
2021/12/06 08:08:19;;;;;;;58.95;27.95;;;;;;;;;;5093199;28;20055;-78
2021/12/06 08:10:47;;;;;;;60.40;28.50;;;;;;;;;;5093186;28;20123;-78
2021/12/06 08:13:14;;;;;;;56.47;27.10;;;;;;;;;;5092853;28;20132;-77
2021/12/06 08:15:40;;;;;;;57.95;27.40;;;;;;;;;;5093263;28;20051;-77
2021/12/06 08:18:07;;;;;;;55.00;27.52;;;;;;;;;;5091813;28;20051;-76
2021/12/06 08:20:34;;;;;;;52.85;26.83;;;;;;;;;;5092373;28;20093;-76
2021/12/06 08:23:00;;;;;;;54.20;26.50;;;;;;;;;;5093362;28;20033;-75
2021/12/06 08:25:26;;;;;;;51.15;25.77;;;;;;;;;;5092025;28;20086;-77
2021/12/06 08:27:52;;;;;;;51.17;25.80;;;;;;;;;;5093001;28;20388;-79
2021/12/06 08:30:22;;;;;;;51.72;26.33;;;;;;;;;;5091793;28;20043;-79
2021/12/06 08:32:52;;;;;;;54.30;26.48;;;;;;;;;;5092791;28;20044;-76
2021/12/06 08:35:19;;;;;;;55.25;27.15;;;;;;;;;;5093103;28;20200;-78
2021/12/06 08:37:45;;;;;;;53.10;25.90;;;;;;;;;;5092868;28;20170;-76
2021/12/06 08:40:12;;;;;;;50.38;25.20;;;;;;;;;;5075128;28;20485;-76
2021/12/06 08:42:38;;;;;;;49.45;24.67;;;;;;;;;;5092773;28;20079;-77
2021/12/06 08:45:05;;;;;;;45.70;24.20;;;;;;;;;;5074746;28;20043;-76
2021/12/06 08:47:31;;;;;;;47.20;25.85;;;;;;;;;;5093042;28;20047;-76
2021/12/06 08:49:57;;;;;;;46.85;24.95;;;;;;;;;;5092821;28;20374;-78
2021/12/06 08:52:23;;;;;;;51.70;25.73;;;;;;;;;;5092974;28;20104;-76
2021/12/06 08:54:49;;;;;;;47.50;24.30;;;;;;;;;;5092761;28;20050;-77
2021/12/06 08:57:16;;;;;;;48.85;23.80;;;;;;;;;;5095389;28;20047;-78
2021/12/06 08:59:42;;;;;;;47.50;24.73;;;;;;;;;;5112840;28;20096;-78
2021/12/06 09:02:08;;;;;;;52.10;26.92;;;;;;;;;;5113065;28;20046;-77
2021/12/06 09:04:37;;;;;;;57.28;26.75;;;;;;;;;;5113081;28;20039;-77
2021/12/06 09:07:09;;;;;;;52.58;27.50;;;;;;;;;;5094869;28;20043;-77
2021/12/06 09:09:36;;;;;;;51.63;24.95;;;;;;;;;;5112977;28;20480;-77
2021/12/06 09:12:02;;;;;;;54.97;26.38;;;;;;;;;;5094642;28;20529;-78
2021/12/06 09:14:28;;;;;;;51.22;25.92;;;;;;;;;;5077829;28;20043;-78
2021/12/06 09:16:55;;;;;;;54.20;27.63;;;;;;;;;;5094670;28;20055;-77
2021/12/06 09:19:21;;;;;;;53.08;26.17;;;;;;;;;;5112925;28;20101;-79
2021/12/06 09:21:48;;;;;;;56.75;27.10;;;;;;;;;;5113165;28;20071;-77
2021/12/06 09:24:16;;;;;;;64.82;30.13;;;;;;;;;;5062363;28;20092;-77
2021/12/06 09:26:42;;;;;;;53.97;27.35;;;;;;;;;;5098432;28;20047;-75
2021/12/06 09:29:09;;;;;;;51.88;26.55;;;;;;;;;;5098697;28;20047;-75
2021/12/06 09:31:35;;;;;;;51.00;25.13;;;;;;;;;;5117097;28;20050;-78
2021/12/06 09:34:01;;;;;;;54.50;27.17;;;;;;;;;;5116813;28;20043;-73
2021/12/06 09:36:28;;;;;;;60.20;28.98;;;;;;;;;;5116505;28;20488;-77
2021/12/06 09:38:54;;;;;;;58.55;28.02;;;;;;;;;;5116588;28;20362;-77
2021/12/06 09:41:23;;;;;;;52.92;27.55;;;;;;;;;;5116374;28;20044;-77
2021/12/06 09:43:50;;;;;;;47.65;25.30;;;;;;;;;;5116762;28;20055;-76
2021/12/06 09:46:17;;;;;;;49.00;25.98;;;;;;;;;;5116683;28;20389;-79
2021/12/06 09:48:44;;;;;;;46.50;23.08;;;;;;;;;;5116515;28;20046;-78
2021/12/06 09:51:12;;;;;;;41.92;22.42;;;;;;;;;;5116424;28;20127;-78
2021/12/06 09:53:39;;;;;;;42.17;23.85;;;;;;;;;;5098420;28;20040;-76
2021/12/06 09:56:11;;;;;;;45.28;23.10;;;;;;;;;;5116249;28;20090;-78
2021/12/06 09:58:37;;;;;;;41.08;22.27;;;;;;;;;;5116560;28;20401;-76
2021/12/06 10:01:10;;;;;;;39.75;22.65;;;;;;;;;;5098111;28;20044;-79
2021/12/06 10:03:37;;;;;;;44.05;23.48;;;;;;;;;;5116452;28;20043;-77
2021/12/06 10:06:04;;;;;;;45.08;24.50;;;;;;;;;;5116161;28;20477;-79
2021/12/06 10:08:35;;;;;;;44.47;24.30;;;;;;;;;;5117196;28;20048;-74
2021/12/06 10:11:01;;;;;;;54.40;28.70;;;;;;;;;;5121848;28;20044;-75
2021/12/06 10:13:28;;;;;;;54.70;31.35;;;;;;;;;;5122324;28;20080;-76
2021/12/06 10:15:54;;;;;;;61.70;32.38;;;;;;;;;;5121904;28;20039;-75
2021/12/06 10:18:20;;;;;;;66.07;37.80;;;;;;;;;;5101625;28;20495;-77
2021/12/06 10:20:47;;;;;;;67.35;38.25;;;;;;;;;;5115783;28;20098;-75
2021/12/06 10:23:14;;;;;;;65.90;37.95;;;;;;;;;;5097760;28;20047;-77
2021/12/06 10:25:43;;;;;;;63.15;35.65;;;;;;;;;;5097680;28;20051;-78
2021/12/06 10:28:10;;;;;;;70.88;40.20;;;;;;;;;;5115730;28;20047;-79
2021/12/06 10:30:42;;;;;;;77.05;41.70;;;;;;;;;;5115829;28;20387;-78
2021/12/06 10:33:12;;;;;;;70.05;37.78;;;;;;;;;;5097407;28;20047;-76
2021/12/06 10:35:40;;;;;;;64.50;37.58;;;;;;;;;;5097083;28;20046;-72
2021/12/06 10:38:06;;;;;;;70.07;39.90;;;;;;;;;;5097310;28;20044;-74
2021/12/06 10:40:34;;;;;;;67.80;37.15;;;;;;;;;;5081128;28;20088;-74
2021/12/06 10:43:02;;;;;;;49.38;28.45;;;;;;;;;;5080459;28;20043;-74
2021/12/06 10:45:29;;;;;;;47.97;28.77;;;;;;;;;;5114798;27;20035;-71
2021/12/06 10:48:10;;;;;;;47.83;29.25;;;;;;;;;;5117483;27;20082;-76
2021/12/06 10:50:38;;;;;;;41.40;23.27;;;;;;;;;;5098079;28;20058;-73
2021/12/06 10:53:05;;;;;;;39.00;22.55;;;;;;;;;;5096717;28;20046;-78
2021/12/06 10:55:32;;;;;;;32.45;18.63;;;;;;;;;;5115097;28;20044;-77
2021/12/06 10:58:00;;;;;;;33.72;20.17;;;;;;;;;;5093261;28;20549;-78
2021/12/06 11:00:35;;;;;;;37.13;21.05;;;;;;;;;;5094597;28;20058;-76
2021/12/06 11:03:02;;;;;;;37.00;22.13;;;;;;;;;;5094497;28;20449;-77
2021/12/06 11:05:29;;;;;;;36.05;21.45;;;;;;;;;;5094767;28;20089;-78
2021/12/06 11:08:08;;;;;;;35.13;21.23;;;;;;;;;;5094670;28;20036;-78
2021/12/06 11:10:38;;;;;;;39.20;22.23;;;;;;;;;;5094501;28;20086;-78
2021/12/06 11:13:14;;;;;;;35.50;22.23;;;;;;;;;;5094448;28;20127;-77
2021/12/06 11:15:59;;;;;;;41.22;23.48;;;;;;;;;;5093644;28;20048;-76
2021/12/06 11:18:32;;;;;;;37.05;21.40;;;;;;;;;;5076255;28;20079;-77
2021/12/06 11:20:58;;;;;;;42.58;25.95;;;;;;;;;;5093076;28;20058;-76
2021/12/06 11:23:25;;;;;;;39.60;24.23;;;;;;;;;;5094136;28;20525;-76
2021/12/06 11:25:58;;;;;;;39.80;23.80;;;;;;;;;;5094405;28;20389;-80
2021/12/06 11:28:26;;;;;;;37.03;22.52;;;;;;;;;;5094314;28;20039;-77
2021/12/06 11:31:03;;;;;;;35.25;20.80;;;;;;;;;;5093200;28;20066;-78
2021/12/06 11:33:34;;;;;;;36.35;20.63;;;;;;;;;;5093153;28;20044;-78
2021/12/06 11:36:02;;;;;;;35.78;22.50;;;;;;;;;;5092998;28;20039;-77
2021/12/06 11:38:31;;;;;;;38.88;20.88;;;;;;;;;;5094051;28;20052;-76
2021/12/06 11:40:58;;;;;;;37.33;21.27;;;;;;;;;;5093974;28;20048;-76
2021/12/06 11:43:25;;;;;;;36.95;22.33;;;;;;;;;;5094025;28;20044;-76
2021/12/06 11:45:57;;;;;;;35.67;22.35;;;;;;;;;;5093734;28;20039;-77
2021/12/06 11:48:27;;;;;;;37.45;22.40;;;;;;;;;;5092687;28;20497;-75
2021/12/06 11:50:55;;;;;;;41.80;24.25;;;;;;;;;;5093841;28;20047;-78
2021/12/06 11:53:25;;;;;;;37.13;24.00;;;;;;;;;;5092443;28;20118;-76
2021/12/06 11:55:54;;;;;;;41.00;25.25;;;;;;;;;;5092498;28;20040;-77
2021/12/06 11:58:47;;;;;;;40.45;26.00;;;;;;;;;;5091891;28;20055;-75
2021/12/06 12:01:13;;;;;;;43.47;25.88;;;;;;;;;;5090921;28;20059;-80
2021/12/06 12:03:40;;;;;;;42.47;27.17;;;;;;;;;;5075638;28;20378;-78
2021/12/06 12:06:25;;;;;;;42.85;26.95;;;;;;;;;;5093631;28;20122;-78
2021/12/06 12:09:01;;;;;;;44.60;25.70;;;;;;;;;;5092259;28;20052;-77
2021/12/06 12:11:27;;;;;;;42.80;26.55;;;;;;;;;;5093195;28;20070;-78
2021/12/06 12:13:56;;;;;;;41.35;25.95;;;;;;;;;;5093639;28;20044;-78
2021/12/06 12:16:23;;;;;;;38.97;24.50;;;;;;;;;;5093448;28;20400;-79
2021/12/06 12:18:49;;;;;;;70.72;37.92;;;;;;;;;;5093483;28;20052;-77
2021/12/06 12:21:15;;;;;;;57.55;30.63;;;;;;;;;;5093053;28;20044;-79
2021/12/06 12:23:42;;;;;;;40.85;23.38;;;;;;;;;;5092033;28;20122;-78
2021/12/06 12:26:13;;;;;;;38.30;23.85;;;;;;;;;;5092951;28;20485;-76
2021/12/06 12:29:00;;;;;;;38.53;23.92;;;;;;;;;;5093408;28;20048;-77
2021/12/06 12:31:28;;;;;;;34.85;19.92;;;;;;;;;;5092043;28;20508;-77
2021/12/06 12:33:57;;;;;;;36.65;21.73;;;;;;;;;;5093028;28;20040;-77
2021/12/06 12:36:24;;;;;;;32.67;19.23;;;;;;;;;;5091816;28;20197;-77
2021/12/06 12:38:54;;;;;;;34.22;19.95;;;;;;;;;;5092749;28;20134;-76
2021/12/06 12:41:21;;;;;;;32.40;20.08;;;;;;;;;;5093095;28;20040;-76
2021/12/06 12:43:53;;;;;;;36.03;20.45;;;;;;;;;;5092593;28;20423;-76
2021/12/06 12:46:24;;;;;;;37.65;21.08;;;;;;;;;;5092825;28;20177;-77
2021/12/06 12:48:54;;;;;;;34.13;20.02;;;;;;;;;;5091386;28;20131;-79
2021/12/06 12:51:22;;;;;;;38.03;20.97;;;;;;;;;;5092781;28;20105;-79
2021/12/06 12:54:07;;;;;;;33.40;20.40;;;;;;;;;;5092921;28;20824;-77
2021/12/06 12:56:41;;;;;;;36.88;21.90;;;;;;;;;;5092590;28;20123;-77
2021/12/06 12:59:20;;;;;;;41.58;22.80;;;;;;;;;;5111027;28;20059;-77
2021/12/06 13:02:06;;;;;;;39.35;22.65;;;;;;;;;;5101716;28;20044;-77
2021/12/06 13:04:52;;;;;;;39.65;23.48;;;;;;;;;;5101379;28;20088;-77
2021/12/06 13:07:18;;;;;;;39.33;23.48;;;;;;;;;;5084375;28;20043;-78
2021/12/06 13:09:44;;;;;;;39.78;24.65;;;;;;;;;;5119517;28;20139;-76
2021/12/06 13:12:11;;;;;;;40.97;25.17;;;;;;;;;;5104825;28;20048;-77
2021/12/06 13:14:46;;;;;;;48.42;26.90;;;;;;;;;;5101520;28;20051;-77
2021/12/06 13:17:23;;;;;;;45.90;27.90;;;;;;;;;;5119422;28;20047;-77
2021/12/06 13:20:06;;;;;;;42.67;26.65;;;;;;;;;;5119356;28;20039;-78
2021/12/06 13:22:33;;;;;;;44.25;27.02;;;;;;;;;;5119548;28;20039;-79
2021/12/06 13:25:01;;;;;;;47.13;29.48;;;;;;;;;;5101099;28;20507;-76
2021/12/06 13:27:40;;;;;;;47.65;28.63;;;;;;;;;;5119747;28;20385;-77
2021/12/06 13:30:26;;;;;;;49.50;28.77;;;;;;;;;;5119541;28;20043;-79
2021/12/06 13:32:52;;;;;;;51.47;28.92;;;;;;;;;;5101152;28;20493;-78
2021/12/06 13:35:24;;;;;;;46.13;28.60;;;;;;;;;;5120127;28;20082;-78
2021/12/06 13:38:09;;;;;;;45.50;27.77;;;;;;;;;;5119617;28;20215;-78
2021/12/06 13:40:41;;;;;;;43.85;27.88;;;;;;;;;;5101277;28;20047;-79
2021/12/06 13:43:10;;;;;;;47.85;29.48;;;;;;;;;;5119480;28;20055;-77
2021/12/06 13:45:41;;;;;;;48.50;28.50;;;;;;;;;;5084483;28;20043;-78
2021/12/06 13:48:09;;;;;;;46.95;27.90;;;;;;;;;;5119286;28;20054;-77
2021/12/06 13:50:36;;;;;;;47.25;28.75;;;;;;;;;;5119286;28;20054;-76
2021/12/06 13:53:03;;;;;;;42.10;27.23;;;;;;;;;;5101097;28;20039;-77
2021/12/06 13:55:32;;;;;;;40.97;26.73;;;;;;;;;;5119180;28;20040;-79
2021/12/06 13:58:00;;;;;;;46.25;29.60;;;;;;;;;;5100673;28;20061;-78
2021/12/06 14:00:28;;;;;;;42.90;28.48;;;;;;;;;;5119264;28;20048;-77
2021/12/06 14:03:02;;;;;;;45.88;29.25;;;;;;;;;;5101171;28;20514;-78
2021/12/06 14:05:30;;;;;;;46.38;28.20;;;;;;;;;;5100932;28;20377;-78
2021/12/06 14:07:56;;;;;;;47.15;29.00;;;;;;;;;;5100899;28;20138;-76
2021/12/06 14:10:24;;;;;;;43.88;28.83;;;;;;;;;;5116643;28;20039;-77
2021/12/06 14:12:50;;;;;;;46.22;29.67;;;;;;;;;;5116070;28;20084;-79
2021/12/06 14:15:21;;;;;;;48.60;30.35;;;;;;;;;;5115971;28;20040;-77
2021/12/06 14:17:49;;;;;;;50.65;31.08;;;;;;;;;;5115663;28;20043;-77
2021/12/06 14:20:16;;;;;;;49.42;30.08;;;;;;;;;;5115686;28;20138;-75
2021/12/06 14:22:45;;;;;;;44.22;28.75;;;;;;;;;;5115441;28;20066;-77
2021/12/06 14:25:13;;;;;;;49.72;30.77;;;;;;;;;;5097698;28;20044;-78
2021/12/06 14:27:40;;;;;;;48.22;29.63;;;;;;;;;;5097746;28;20525;-78
2021/12/06 14:30:09;;;;;;;50.42;31.88;;;;;;;;;;5115631;28;20175;-79
2021/12/06 14:32:35;;;;;;;50.88;30.40;;;;;;;;;;5115629;28;20126;-77
2021/12/06 14:35:01;;;;;;;46.95;28.45;;;;;;;;;;5115771;28;20040;-76